Time;durP1;ratioP1;P1;durP2;ratioP2;P2;SDS_P1;SDS_P2;PMS_P1;PMS_P2;Temp;Humidity;BMP_temperature;BMP_pressure;BME280_temperature;BME280_humidity;BME280_pressure;Samples;Min_cycle;Max_cycle;Signal;HPM_P1;HPM_P2
2021/08/24 00:01:40;;;;;;;;;14.00;9.00;;;;;17.69;70.58;102123.78;4954782;28;45722;-74
2021/08/24 00:04:06;;;;;;;;;11.00;11.00;;;;;17.69;70.42;102115.78;4937793;28;45575;-74
2021/08/24 00:06:32;;;;;;;;;10.25;8.25;;;;;17.69;70.38;102113.09;4955756;28;45246;-72
2021/08/24 00:08:57;;;;;;;;;14.75;11.25;;;;;17.71;70.93;102111.09;4946930;28;45503;-72
2021/08/24 00:11:23;;;;;;;;;11.00;11.00;;;;;17.71;70.52;102108.44;4950866;28;46057;-72
2021/08/24 00:13:48;;;;;;;;;15.00;11.00;;;;;17.73;70.46;102097.56;4954107;28;45389;-74
2021/08/24 00:16:17;;;;;;;;;9.25;9.25;;;;;17.74;70.61;102100.06;4952727;28;45776;-73
2021/08/24 00:18:42;;;;;;;;;12.00;9.00;;;;;17.75;70.68;102101.75;4944420;28;45563;-73
2021/08/24 00:21:08;;;;;;;;;14.00;10.00;;;;;17.75;70.77;102096.38;4945476;28;46994;-74
2021/08/24 00:23:33;;;;;;;;;14.50;11.75;;;;;17.75;70.87;102101.75;4959539;28;45445;-68
2021/08/24 00:25:59;;;;;;;;;10.25;10.25;;;;;17.73;70.66;102095.75;4952276;28;45433;-72
2021/08/24 00:28:26;;;;;;;;;13.00;11.00;;;;;17.73;71.32;102089.53;4952235;28;45480;-69
2021/08/24 00:30:51;;;;;;;;;13.25;11.00;;;;;17.70;71.18;102090.69;4944587;28;47180;-69
2021/08/24 00:33:18;;;;;;;;;14.75;12.00;;;;;17.69;71.48;102091.72;4946302;28;45620;-72
2021/08/24 00:35:44;;;;;;;;;14.25;11.75;;;;;17.68;71.85;102089.19;4953758;28;45365;-73
2021/08/24 00:38:12;;;;;;;;;17.00;13.00;;;;;17.65;72.29;102103.72;4948690;28;46084;-73
2021/08/24 00:40:39;;;;;;;;;17.75;15.00;;;;;17.62;71.89;102099.53;4946890;28;46599;-68
2021/08/24 00:43:08;;;;;;;;;13.00;12.50;;;;;17.59;72.09;102091.03;4945550;28;45548;-75
2021/08/24 00:45:35;;;;;;;;;15.50;13.00;;;;;17.56;72.60;102096.69;4945080;28;45562;-72
2021/08/24 00:48:01;;;;;;;;;11.75;11.00;;;;;17.53;72.73;102097.00;4944378;28;45846;-71
2021/08/24 00:50:37;;;;;;;;;18.75;16.00;;;;;17.52;72.52;102092.66;4962052;28;46221;-72
2021/08/24 00:53:07;;;;;;;;;15.00;14.50;;;;;17.49;72.62;102082.31;4949798;28;45537;-75
2021/08/24 00:55:33;;;;;;;;;17.25;14.00;;;;;17.45;72.91;102088.97;4943179;28;45562;-71
2021/08/24 00:58:04;;;;;;;;;17.00;15.00;;;;;17.45;73.23;102084.44;4942880;28;45618;-67
2021/08/24 01:00:30;;;;;;;;;16.00;12.50;;;;;17.42;73.29;102093.63;4949025;28;47211;-73
2021/08/24 01:03:27;;;;;;;;;16.50;15.25;;;;;17.39;73.61;102088.63;4944735;28;45700;-71
2021/08/24 01:06:01;;;;;;;;;15.75;13.50;;;;;17.37;73.59;102085.25;4911834;28;45895;-72
2021/08/24 01:08:45;;;;;;;;;18.00;15.50;;;;;17.35;73.42;102089.94;4946248;28;45451;-69
2021/08/24 01:11:48;;;;;;;;;16.25;15.75;;;;;17.32;73.90;102090.25;4948240;28;46168;-71
2021/08/24 01:14:30;;;;;;;;;21.50;17.75;;;;;17.29;74.13;102079.91;4956389;28;45388;-68
2021/08/24 01:17:16;;;;;;;;;16.25;15.00;;;;;17.25;73.98;102094.56;4952321;28;45559;-68
2021/08/24 01:19:54;;;;;;;;;21.25;16.75;;;;;17.22;74.14;102089.53;4957214;28;45565;-69
2021/08/24 01:22:50;;;;;;;;;19.00;17.75;;;;;17.21;74.38;102085.22;4948393;28;47445;-74
2021/08/24 01:25:34;;;;;;;;;18.00;14.50;;;;;17.21;74.35;102077.19;4946675;28;45789;-68
2021/08/24 01:28:20;;;;;;;;;19.00;16.00;;;;;17.18;74.54;102077.50;4951583;28;45559;-74
2021/08/24 01:31:23;;;;;;;;;16.50;15.00;;;;;17.17;74.82;102075.84;4952203;28;45494;-68
2021/08/24 01:34:00;;;;;;;;;19.00;17.25;;;;;17.17;74.61;102070.50;4950225;28;45911;-74
2021/08/24 01:36:44;;;;;;;;;21.75;17.75;;;;;17.15;74.53;102070.63;4953836;28;45624;-74
2021/08/24 01:39:25;;;;;;;;;18.00;15.00;;;;;17.13;74.88;102069.97;4953609;28;45512;-68
2021/08/24 01:42:29;;;;;;;;;17.50;16.00;;;;;17.10;74.61;102069.47;4938956;28;45549;-74
2021/08/24 01:45:20;;;;;;;;;20.75;17.00;;;;;17.06;74.91;102078.78;4932420;28;46135;-67
2021/08/24 01:48:09;;;;;;;;;19.00;16.75;;;;;17.03;74.81;102069.25;4941673;28;45571;-73
2021/08/24 01:50:44;;;;;;;;;16.25;12.25;;;;;17.01;75.23;102075.75;4955889;28;45551;-73
2021/08/24 01:53:35;;;;;;;;;18.75;16.00;;;;;17.00;75.28;102069.56;4953932;28;45802;-74
2021/08/24 01:56:23;;;;;;;;;18.75;15.00;;;;;16.98;74.99;102071.56;4946615;28;45606;-69
2021/08/24 01:58:54;;;;;;;;;20.25;18.00;;;;;16.95;75.15;102075.38;4955073;28;45503;-69
2021/08/24 02:01:42;;;;;;;;;13.25;13.00;;;;;16.94;75.34;102076.41;4953523;28;45428;-74
2021/08/24 02:04:15;;;;;;;;;20.00;18.50;;;;;16.92;75.47;102072.22;4946503;28;45417;-73
2021/08/24 02:06:46;;;;;;;;;18.25;16.00;;;;;16.89;75.63;102073.38;4951089;28;45537;-67
2021/08/24 02:09:19;;;;;;;;;16.75;15.50;;;;;16.88;75.67;102071.69;4942504;28;47433;-72
2021/08/24 02:11:46;;;;;;;;;16.50;15.50;;;;;16.87;75.74;102077.19;4954749;28;45545;-72
2021/08/24 02:14:15;;;;;;;;;16.00;14.75;;;;;16.84;75.93;102075.69;4959372;28;45944;-74
2021/08/24 02:16:43;;;;;;;;;18.75;16.25;;;;;16.85;75.69;102076.50;4948315;28;46381;-70
2021/08/24 02:19:13;;;;;;;;;14.25;14.25;;;;;16.83;75.74;102084.66;4947177;28;45542;-71
2021/08/24 02:21:47;;;;;;;;;18.25;16.25;;;;;16.83;75.92;102074.00;4945468;28;45923;-74
2021/08/24 02:24:18;;;;;;;;;18.25;15.75;;;;;16.82;75.77;102076.84;4953610;28;45471;-67
2021/08/24 02:26:46;;;;;;;;;18.25;17.25;;;;;16.81;75.92;102080.47;4939277;28;46016;-71
2021/08/24 02:29:12;;;;;;;;;21.50;18.00;;;;;16.78;76.22;102073.63;4953154;28;45492;-74
2021/08/24 02:31:50;;;;;;;;;17.25;17.25;;;;;16.77;76.06;102078.09;4948764;28;45485;-71
2021/08/24 02:34:34;;;;;;;;;21.25;17.00;;;;;16.77;76.26;102074.59;4949875;28;45436;-73
2021/08/24 02:37:09;;;;;;;;;23.00;19.75;;;;;16.74;76.43;102067.75;4941717;28;47337;-72
2021/08/24 02:40:27;;;;;;;;;21.25;18.25;;;;;16.73;76.47;102070.56;4948229;28;45461;-73
2021/08/24 02:43:17;;;;;;;;;20.50;17.75;;;;;16.71;76.57;102069.88;4868078;29;45532;-70
2021/08/24 02:45:53;;;;;;;;;20.00;19.50;;;;;16.69;76.49;102074.53;4866173;29;45650;-72
2021/08/24 02:48:21;;;;;;;;;25.00;19.50;;;;;16.68;76.93;102081.69;4869411;29;46209;-77
2021/08/24 02:50:48;;;;;;;;;24.50;20.25;;;;;16.67;77.24;102079.22;4869316;29;45628;-77
2021/08/24 02:53:15;;;;;;;;;23.25;21.25;;;;;16.66;76.80;102072.19;4871727;29;45954;-73
2021/08/24 02:55:40;;;;;;;;;24.00;21.00;;;;;16.65;76.71;102075.84;4868097;29;46705;-71
2021/08/24 02:58:06;;;;;;;;;25.25;21.50;;;;;16.64;77.21;102068.81;4856193;29;48448;-73
2021/08/24 03:00:31;;;;;;;;;25.00;21.00;;;;;16.60;77.39;102068.31;4866737;29;45581;-69
2021/08/24 03:02:56;;;;;;;;;22.25;18.75;;;;;16.58;77.45;102070.28;4868631;29;45530;-73
2021/08/24 03:05:22;;;;;;;;;23.50;21.00;;;;;16.57;77.45;102068.63;4872207;29;45527;-68
2021/08/24 03:07:47;;;;;;;;;23.25;22.50;;;;;16.55;77.66;102068.78;4870696;29;45695;-77
2021/08/24 03:10:17;;;;;;;;;24.25;20.75;;;;;16.54;77.72;102064.44;4865819;29;45678;-73
2021/08/24 03:13:04;;;;;;;;;28.50;21.75;;;;;16.53;77.60;102065.44;4875693;29;45546;-69
2021/08/24 03:15:41;;;;;;;;;32.25;26.00;;;;;16.53;77.92;102060.09;4867371;29;45532;-74
2021/08/24 03:18:14;;;;;;;;;28.00;25.75;;;;;16.52;77.82;102061.09;4944772;28;45586;-72
2021/08/24 03:20:47;;;;;;;;;27.50;26.00;;;;;16.52;77.94;102061.09;4937833;28;45456;-71
2021/08/24 03:23:14;;;;;;;;;23.50;19.75;;;;;16.52;78.18;102060.25;4949364;28;45870;-70
2021/08/24 03:25:42;;;;;;;;;34.00;28.25;;;;;16.50;78.32;102056.91;4954626;28;45455;-76
2021/08/24 03:28:13;;;;;;;;;31.25;28.75;;;;;16.49;77.82;102063.22;4948584;28;47532;-68
2021/08/24 03:30:39;;;;;;;;;30.25;25.75;;;;;16.50;78.05;102068.41;4945298;28;45848;-70
2021/08/24 03:33:04;;;;;;;;;36.25;30.50;;;;;16.50;78.38;102064.91;4939089;28;45613;-68
2021/08/24 03:35:30;;;;;;;;;40.25;31.00;;;;;16.47;78.37;102062.56;4948793;28;45373;-68
2021/08/24 03:37:55;;;;;;;;;33.25;27.75;;;;;16.47;78.12;102059.91;4948099;28;46503;-72
2021/08/24 03:40:21;;;;;;;;;37.75;30.75;;;;;16.46;78.28;102061.69;4948818;28;45513;-73
2021/08/24 03:42:46;;;;;;;;;33.25;29.25;;;;;16.45;78.57;102061.88;4945362;28;45538;-76
2021/08/24 03:45:12;;;;;;;;;37.75;31.50;;;;;16.44;78.47;102068.19;4941422;28;45533;-76
2021/08/24 03:47:38;;;;;;;;;35.00;31.00;;;;;16.43;78.66;102066.53;4947399;28;46759;-68
2021/08/24 03:50:06;;;;;;;;;37.25;30.50;;;;;16.43;78.37;102064.69;4947676;28;45425;-71
2021/08/24 03:52:31;;;;;;;;;34.50;31.25;;;;;16.43;78.21;102059.34;4952092;28;45650;-66
2021/08/24 03:54:57;;;;;;;;;34.25;30.50;;;;;16.44;78.30;102066.34;4942163;28;45583;-67
2021/08/24 03:57:22;;;;;;;;;34.75;31.25;;;;;16.45;78.30;102064.53;4946282;28;45972;-73
2021/08/24 03:59:48;;;;;;;;;37.50;31.00;;;;;16.45;78.63;102064.53;4966009;28;45392;-70
2021/08/24 04:02:15;;;;;;;;;29.25;28.25;;;;;16.44;78.76;102063.69;4952430;28;46073;-72
2021/08/24 04:04:40;;;;;;;;;34.75;30.75;;;;;16.44;78.54;102066.34;4947174;28;45491;-71
2021/08/24 04:07:05;;;;;;;;;35.25;33.00;;;;;16.42;78.84;102071.03;4949135;28;45472;-70
2021/08/24 04:09:30;;;;;;;;;34.00;30.75;;;;;16.40;78.81;102070.34;4949993;28;45539;-70
2021/08/24 04:11:56;;;;;;;;;41.50;33.50;;;;;16.39;79.10;102070.50;4953112;28;45483;-70
2021/08/24 04:14:21;;;;;;;;;35.75;32.50;;;;;16.37;78.84;102068.00;4949152;28;45510;-67
2021/08/24 04:16:48;;;;;;;;;38.25;32.25;;;;;16.36;78.76;102074.31;4948093;28;53260;-66
2021/08/24 04:19:13;;;;;;;;;35.50;31.50;;;;;16.36;78.95;102070.81;4946295;28;45583;-71
2021/08/24 04:21:41;;;;;;;;;40.00;34.75;;;;;16.33;79.27;102078.13;4946773;28;45554;-66
2021/08/24 04:24:08;;;;;;;;;37.25;32.00;;;;;16.32;79.11;102072.97;4940499;28;45569;-71
2021/08/24 04:26:34;;;;;;;;;35.25;32.25;;;;;16.30;79.16;102078.44;4946210;28;47272;-71
2021/08/24 04:29:00;;;;;;;;;44.00;33.75;;;;;16.28;79.73;102076.91;4950738;28;45671;-74
2021/08/24 04:31:26;;;;;;;;;43.00;36.00;;;;;16.26;79.41;102076.22;4948345;28;47783;-71
2021/08/24 04:33:51;;;;;;;;;41.50;33.25;;;;;16.26;79.34;102086.91;4953247;28;45639;-70
2021/08/24 04:36:18;;;;;;;;;43.75;34.00;;;;;16.23;79.39;102080.03;4943959;28;46920;-66
2021/08/24 04:38:43;;;;;;;;;45.00;34.00;;;;;16.21;79.65;102081.19;4950029;28;45496;-73
2021/08/24 04:41:09;;;;;;;;;38.50;34.00;;;;;16.21;79.36;102089.19;4945120;28;45540;-72
2021/08/24 04:43:36;;;;;;;;;41.00;33.75;;;;;16.20;79.76;102092.88;4951261;28;45517;-71
2021/08/24 04:46:02;;;;;;;;;35.50;30.75;;;;;16.17;79.45;102083.34;4946109;28;47222;-72
2021/08/24 04:48:27;;;;;;;;;36.00;32.50;;;;;16.16;79.66;102086.16;4945623;28;46116;-71
2021/08/24 04:50:53;;;;;;;;;40.75;34.00;;;;;16.15;79.63;102084.44;4943228;28;45544;-66
2021/08/24 04:53:18;;;;;;;;;41.25;34.00;;;;;16.13;79.57;102088.13;4944022;28;45559;-72
2021/08/24 04:55:43;;;;;;;;;44.00;33.75;;;;;16.15;79.63;102093.31;4938485;28;46115;-73
2021/08/24 04:58:09;;;;;;;;;39.75;32.00;;;;;16.13;79.47;102090.78;4946269;28;45546;-66
2021/08/24 05:00:35;;;;;;;;;39.00;33.00;;;;;16.13;79.96;102093.47;4941969;28;45499;-68
2021/08/24 05:03:01;;;;;;;;;43.75;34.75;;;;;16.12;79.62;102094.47;4944124;28;45598;-67
2021/08/24 05:05:27;;;;;;;;;42.25;34.50;;;;;16.13;79.95;102101.47;4926601;28;48557;-74
2021/08/24 05:07:53;;;;;;;;;38.25;32.75;;;;;16.13;79.90;102092.63;4946298;28;45901;-67
2021/08/24 05:10:20;;;;;;;;;37.25;31.00;;;;;16.14;79.60;102099.63;4948096;28;45469;-71
2021/08/24 05:12:45;;;;;;;;;37.50;32.75;;;;;16.14;79.63;102107.63;4952880;28;45800;-75
2021/08/24 05:15:11;;;;;;;;;44.50;34.50;;;;;16.16;79.87;102097.66;4948063;28;46110;-72
2021/08/24 05:17:36;;;;;;;;;41.00;33.00;;;;;16.17;79.50;102099.34;4942979;28;45511;-72
2021/08/24 05:20:04;;;;;;;;;38.50;33.00;;;;;16.17;79.72;102099.34;4943423;28;45553;-74
2021/08/24 05:22:30;;;;;;;;;40.00;33.00;;;;;16.21;79.48;102102.53;4946890;28;45458;-74
2021/08/24 05:24:56;;;;;;;;;39.25;32.75;;;;;16.23;79.34;102103.22;4937728;28;47071;-66
2021/08/24 05:27:21;;;;;;;;;43.25;35.75;;;;;16.26;79.39;102109.06;4925915;28;45598;-66
2021/08/24 05:29:47;;;;;;;;;38.00;33.50;;;;;16.29;79.28;102110.59;4935839;28;45520;-66
2021/08/24 05:32:13;;;;;;;;;44.75;34.25;;;;;16.32;78.89;102110.31;4947388;28;45504;-71
2021/08/24 05:34:38;;;;;;;;;41.50;34.00;;;;;16.36;79.04;102111.66;4939449;28;46971;-66
2021/08/24 05:37:05;;;;;;;;;40.25;32.25;;;;;16.39;79.00;102114.00;4945383;28;45748;-68
2021/08/24 05:39:31;;;;;;;;;38.75;32.00;;;;;16.42;78.68;102112.88;4944053;28;45777;-72
2021/08/24 05:41:56;;;;;;;;;45.00;33.50;;;;;16.44;78.99;102114.38;4940619;28;50787;-70
2021/08/24 05:44:22;;;;;;;;;45.75;34.00;;;;;16.49;78.22;102125.47;4946487;28;47120;-65
2021/08/24 05:46:47;;;;;;;;;37.75;33.75;;;;;16.53;78.38;102115.31;4945410;28;45480;-70
2021/08/24 05:49:12;;;;;;;;;40.25;33.25;;;;;16.55;78.38;102111.47;4948314;28;45555;-72
2021/08/24 05:51:39;;;;;;;;;37.75;32.00;;;;;16.61;78.27;102117.19;4942997;28;46089;-69
2021/08/24 05:54:04;;;;;;;;;38.00;32.50;;;;;16.64;77.91;102115.06;4951030;28;46000;-71
2021/08/24 05:56:30;;;;;;;;;35.25;31.50;;;;;16.70;77.67;102113.59;4950993;28;45460;-71
2021/08/24 05:58:56;;;;;;;;;43.50;35.75;;;;;16.78;77.36;102113.66;4954144;28;45504;-72
2021/08/24 06:01:25;;;;;;;;;38.00;32.75;;;;;16.86;77.36;102116.38;4934775;28;45569;-66
2021/08/24 06:03:50;;;;;;;;;38.00;33.50;;;;;16.93;76.94;102121.94;4939960;28;46393;-66
2021/08/24 06:06:31;;;;;;;;;43.00;33.75;;;;;17.01;76.63;102118.47;4948751;28;45459;-72
2021/08/24 06:08:57;;;;;;;;;36.50;32.50;;;;;17.09;76.58;102132.72;4939929;28;45990;-72
2021/08/24 06:11:35;;;;;;;;;38.25;32.00;;;;;17.18;75.90;102129.13;4955799;28;45513;-72
2021/08/24 06:14:05;;;;;;;;;36.50;31.50;;;;;17.24;75.78;102130.31;4948954;28;46134;-71
2021/08/24 06:16:31;;;;;;;;;35.25;30.25;;;;;17.34;75.61;102132.88;4944431;28;45529;-72
2021/08/24 06:18:57;;;;;;;;;35.50;31.50;;;;;17.42;75.15;102136.38;4944777;28;45676;-73
2021/08/24 06:21:23;;;;;;;;;34.75;32.00;;;;;17.52;74.87;102132.75;4946174;28;45625;-71
2021/08/24 06:23:49;;;;;;;;;34.25;30.00;;;;;17.58;74.86;102124.09;4951821;28;46297;-66
2021/08/24 06:26:15;;;;;;;;;37.75;33.00;;;;;17.67;74.49;102123.13;4952509;28;45761;-72
2021/08/24 06:28:41;;;;;;;;;38.75;30.25;;;;;17.76;73.98;102119.47;4932440;28;45536;-70
2021/08/24 06:31:07;;;;;;;;;32.00;28.75;;;;;17.87;74.10;102125.53;4949506;28;45847;-70
2021/08/24 06:33:38;;;;;;;;;31.75;29.00;;;;;17.97;73.38;102123.56;4945873;28;47102;-70
2021/08/24 06:36:05;;;;;;;;;36.00;31.50;;;;;18.10;73.06;102128.41;4952400;28;45471;-72
2021/08/24 06:38:31;;;;;;;;;31.00;26.00;;;;;18.24;72.80;102127.78;4946187;28;45925;-69
2021/08/24 06:41:00;;;;;;;;;31.50;29.50;;;;;18.38;72.48;102128.97;4953631;28;45617;-66
2021/08/24 06:43:26;;;;;;;;;34.50;30.50;;;;;18.48;71.69;102118.91;4949559;28;45640;-72
2021/08/24 06:45:52;;;;;;;;;38.25;31.00;;;;;18.57;71.46;102122.41;4948604;28;45874;-71
2021/08/24 06:48:17;;;;;;;;;35.25;29.50;;;;;18.71;71.04;102121.72;4947589;28;45538;-72
2021/08/24 06:50:43;;;;;;;;;37.50;31.00;;;;;18.86;70.93;102124.59;4944699;28;45617;-72
2021/08/24 06:53:09;;;;;;;;;37.50;31.00;;;;;18.96;70.49;102119.88;4950001;28;45493;-71
2021/08/24 06:55:38;;;;;;;;;33.00;30.00;;;;;19.09;70.32;102117.50;4943573;28;45518;-70
2021/08/24 06:58:04;;;;;;;;;37.50;32.50;;;;;19.26;69.55;102122.78;4947521;28;45594;-71
2021/08/24 07:00:29;;;;;;;;;33.50;30.00;;;;;19.37;69.16;102125.09;4941834;28;45480;-70
2021/08/24 07:02:55;;;;;;;;;34.25;29.75;;;;;19.52;68.74;102131.41;4946025;28;47376;-72
2021/08/24 07:05:23;;;;;;;;;38.00;30.25;;;;;19.64;68.11;102121.13;4931743;28;45876;-70
2021/08/24 07:07:49;;;;;;;;;31.00;29.25;;;;;19.79;68.37;102125.78;4943196;28;45412;-66
2021/08/24 07:10:16;;;;;;;;;33.00;29.25;;;;;19.96;66.86;102130.03;4946921;28;45737;-73
2021/08/24 07:12:42;;;;;;;;;33.50;28.75;;;;;20.22;66.68;102128.84;4954846;28;46328;-66
2021/08/24 07:15:10;;;;;;;;;37.50;29.75;;;;;20.42;66.44;102124.63;4950012;28;45611;-73
2021/08/24 07:17:37;;;;;;;;;33.25;30.00;;;;;20.55;65.60;102126.75;4955771;28;45911;-70
2021/08/24 07:20:05;;;;;;;;;28.00;25.75;;;;;20.61;65.02;102124.16;4957025;28;45608;-73
2021/08/24 07:22:31;;;;;;;;;28.75;27.25;;;;;20.68;64.71;102126.97;4938375;28;47319;-72
2021/08/24 07:24:56;;;;;;;;;37.50;30.00;;;;;20.90;64.61;102121.72;4944547;28;45433;-70
2021/08/24 07:27:22;;;;;;;;;28.25;25.50;;;;;21.11;64.39;102129.03;4949979;28;45563;-69
2021/08/24 07:29:47;;;;;;;;;32.25;25.25;;;;;21.21;63.57;102129.59;4943335;28;45517;-65
2021/08/24 07:32:12;;;;;;;;;30.50;28.00;;;;;21.30;63.48;102135.72;4956704;28;46154;-65
2021/08/24 07:34:38;;;;;;;;;30.75;29.50;;;;;21.34;62.20;102127.09;4951418;28;45599;-71
2021/08/24 07:37:04;;;;;;;;;26.00;25.00;;;;;21.37;62.92;102133.94;4940617;28;45969;-70
2021/08/24 07:39:29;;;;;;;;;33.75;27.75;;;;;21.51;62.40;102130.41;4940664;28;45492;-72
2021/08/24 07:41:55;;;;;;;;;28.50;25.00;;;;;21.64;62.25;102125.22;4942635;28;51117;-71
2021/08/24 07:44:24;;;;;;;;;27.25;25.25;;;;;21.92;61.93;102126.34;4943106;28;45468;-65
2021/08/24 07:46:50;;;;;;;;;30.00;25.75;;;;;22.15;60.73;102131.53;4942640;28;45544;-69
2021/08/24 07:49:16;;;;;;;;;26.75;23.75;;;;;22.39;60.29;102133.88;4968690;28;45923;-70
2021/08/24 07:51:42;;;;;;;;;22.75;22.50;;;;;22.72;57.64;102122.50;4952787;28;45474;-65
2021/08/24 07:54:08;;;;;;;;;26.25;24.75;;;;;23.21;59.18;102121.59;4945480;28;45466;-72
2021/08/24 07:56:33;;;;;;;;;22.00;21.50;;;;;24.97;57.66;102124.16;4941146;28;46011;-69
2021/08/24 07:58:58;;;;;;;;;26.75;19.00;;;;;27.63;50.25;102118.59;4951743;28;45504;-65
2021/08/24 08:01:24;;;;;;;;;17.75;17.00;;;;;30.06;48.55;102124.59;4930973;28;47292;-71
2021/08/24 08:03:49;;;;;;;;;22.50;21.50;;;;;32.37;44.53;102114.59;4947738;28;45550;-71
2021/08/24 08:06:14;;;;;;;;;17.50;16.00;;;;;34.34;40.03;102125.66;4958663;28;45519;-70
2021/08/24 08:08:40;;;;;;;;;18.75;16.25;;;;;35.86;37.86;102119.81;4949987;28;45640;-72
2021/08/24 08:11:05;;;;;;;;;17.00;16.75;;;;;37.05;30.25;102125.81;4952284;28;45492;-70
2021/08/24 08:13:31;;;;;;;;;16.50;16.50;;;;;38.07;34.44;102134.50;4943223;28;45908;-66
2021/08/24 08:15:56;;;;;;;;;16.25;14.75;;;;;39.08;31.38;102132.88;4952175;28;46099;-70
2021/08/24 08:18:22;;;;;;;;;14.25;13.50;;;;;39.59;31.31;102140.00;4946116;28;45622;-72
2021/08/24 08:20:47;;;;;;;;;14.00;14.00;;;;;40.30;29.79;102131.88;4951072;28;45507;-71
2021/08/24 08:23:16;;;;;;;;;16.75;13.50;;;;;41.06;29.46;102141.94;4936016;28;45888;-72
2021/08/24 08:25:43;;;;;;;;;13.00;12.00;;;;;42.02;28.48;102134.47;4949668;28;45607;-66
2021/08/24 08:28:10;;;;;;;;;11.00;11.00;;;;;42.86;26.45;102140.34;4946656;28;45617;-72
2021/08/24 08:30:36;;;;;;;;;15.75;11.00;;;;;42.83;25.53;102135.47;4942298;28;45550;-72
2021/08/24 08:33:04;;;;;;;;;11.00;10.50;;;;;43.20;25.52;102141.25;4952980;28;45394;-70
2021/08/24 08:35:30;;;;;;;;;13.25;13.25;;;;;43.75;23.27;102158.81;4953020;28;45477;-72
2021/08/24 08:37:56;;;;;;;;;12.00;11.00;;;;;43.90;24.23;102138.69;4952943;28;45780;-71
2021/08/24 08:40:33;;;;;;;;;10.00;8.00;;;;;44.22;22.88;102145.38;4951833;28;46364;-71
2021/08/24 08:43:11;;;;;;;;;9.50;9.00;;;;;44.38;21.76;102158.63;4948554;28;45428;-72
2021/08/24 08:45:37;;;;;;;;;15.50;13.00;;;;;44.10;19.06;102145.34;4961870;28;45503;-72
2021/08/24 08:48:24;;;;;;;;;12.50;11.00;;;;;43.79;20.46;102154.97;4950007;28;45571;-70
2021/08/24 08:50:54;;;;;;;;;9.75;9.75;;;;;43.34;20.50;102143.78;4925084;28;47397;-66
2021/08/24 08:53:44;;;;;;;;;10.00;8.75;;;;;43.31;21.01;102150.03;4947938;28;45482;-72
2021/08/24 08:56:28;;;;;;;;;12.25;10.00;;;;;43.99;21.45;102146.94;4949733;28;45430;-74
2021/08/24 08:59:02;;;;;;;;;9.00;8.00;;;;;44.76;20.74;102137.94;4954659;28;45461;-67
2021/08/24 09:01:45;;;;;;;;;10.00;7.50;;;;;45.34;19.68;102141.34;4957841;28;45592;-72
2021/08/24 09:04:27;;;;;;;;;7.25;7.00;;;;;45.23;15.31;102132.69;4959822;28;45494;-73
2021/08/24 09:06:58;;;;;;;;;7.75;6.00;;;;;44.91;16.06;102142.84;4949629;28;45414;-72
2021/08/24 09:09:25;;;;;;;;;5.50;5.50;;;;;45.17;19.97;102138.84;4945498;28;45993;-72
2021/08/24 09:11:51;;;;;;;;;7.25;6.75;;;;;45.66;19.01;102127.53;4960136;28;45825;-68
2021/08/24 09:14:28;;;;;;;;;8.25;7.50;;;;;45.96;15.42;102129.94;4959309;28;45566;-73
2021/08/24 09:17:01;;;;;;;;;7.00;7.00;;;;;46.26;18.65;102133.88;4947024;28;45466;-71
2021/08/24 09:19:40;;;;;;;;;6.00;6.00;;;;;46.54;18.31;102128.22;4954181;28;45524;-73
2021/08/24 09:22:11;;;;;;;;;5.25;5.25;;;;;46.91;18.58;102127.88;4942369;28;45570;-73
2021/08/24 09:24:38;;;;;;;;;7.00;6.00;;;;;47.29;17.99;102123.47;4944023;28;45590;-74
2021/08/24 09:27:25;;;;;;;;;10.25;7.25;;;;;47.35;17.54;102121.19;4929051;28;45953;-73
2021/08/24 09:29:51;;;;;;;;;5.25;5.25;;;;;47.23;17.53;102129.72;4933019;28;53551;-74
2021/08/24 09:32:21;;;;;;;;;6.50;6.00;;;;;47.04;17.35;102131.34;4944977;28;45915;-71
2021/08/24 09:34:48;;;;;;;;;5.00;5.00;;;;;46.88;17.65;102130.56;4950749;28;45584;-73
2021/08/24 09:37:18;;;;;;;;;5.25;5.25;;;;;46.73;16.74;102126.66;4949754;28;49647;-71
2021/08/24 09:40:07;;;;;;;;;6.25;5.25;;;;;46.38;15.92;102118.22;4949633;28;45596;-71
2021/08/24 09:42:35;;;;;;;;;7.25;6.25;;;;;45.65;17.72;102117.50;4938902;28;47430;-74
2021/08/24 09:45:05;;;;;;;;;6.50;6.50;;;;;45.19;18.38;102114.22;4947203;28;45631;-74
2021/08/24 09:47:32;;;;;;;;;5.00;3.75;;;;;44.10;17.23;102109.16;4964495;28;45710;-71
2021/08/24 09:50:02;;;;;;;;;4.25;4.25;;;;;42.64;19.00;102104.50;4956895;28;45847;-74
2021/08/24 09:52:30;;;;;;;;;4.00;3.75;;;;;42.20;18.27;102106.63;4954820;28;45590;-71
2021/08/24 09:55:04;;;;;;;;;5.25;5.00;;;;;40.67;20.31;102113.16;4949844;28;45619;-73
2021/08/24 09:57:52;;;;;;;;;8.75;4.50;;;;;39.83;20.92;102106.53;4950949;28;45516;-74
2021/08/24 10:00:19;;;;;;;;;4.75;4.00;;;;;39.43;21.63;102108.34;4950338;28;45664;-72
2021/08/24 10:02:52;;;;;;;;;7.00;4.00;;;;;38.25;21.43;102091.41;4947525;28;45988;-69
2021/08/24 10:05:20;;;;;;;;;4.50;4.00;;;;;37.40;23.06;102093.34;4943498;28;45872;-74
2021/08/24 10:07:49;;;;;;;;;6.25;4.50;;;;;37.36;23.41;102086.78;4946585;28;45598;-72
2021/08/24 10:10:33;;;;;;;;;3.00;3.00;;;;;37.30;23.44;102083.31;4949136;28;45571;-74
2021/08/24 10:13:20;;;;;;;;;4.75;4.00;;;;;37.11;23.37;102099.00;4949415;28;45636;-72
2021/08/24 10:15:49;;;;;;;;;4.00;4.00;;;;;36.44;22.72;102083.25;4950991;28;45503;-73
2021/08/24 10:18:23;;;;;;;;;3.75;3.75;;;;;35.66;23.78;102085.06;4950775;28;45635;-73
2021/08/24 10:20:55;;;;;;;;;5.25;5.25;;;;;35.07;24.51;102096.94;4955004;28;45778;-80
2021/08/24 10:23:25;;;;;;;;;4.00;4.00;;;;;35.05;24.24;102088.16;4955091;28;45547;-73
2021/08/24 10:25:55;;;;;;;;;4.00;4.00;;;;;34.89;23.13;102082.72;4951275;28;45623;-74
2021/08/24 10:28:22;;;;;;;;;3.00;2.00;;;;;34.03;24.17;102092.75;4947152;28;45475;-71
2021/08/24 10:30:56;;;;;;;;;4.00;4.00;;;;;33.14;23.90;102074.81;4920307;28;45625;-72
2021/08/24 10:33:27;;;;;;;;;3.75;3.00;;;;;32.50;24.87;102089.56;4946646;28;46177;-73
2021/08/24 10:35:59;;;;;;;;;4.00;3.75;;;;;31.89;25.99;102081.69;4943962;28;45632;-73
2021/08/24 10:38:44;;;;;;;;;5.00;4.00;;;;;32.11;26.30;102082.44;4946889;28;45480;-72
2021/08/24 10:41:31;;;;;;;;;3.50;3.00;;;;;32.50;26.68;102064.94;4936648;28;45583;-72
2021/08/24 10:44:00;;;;;;;;;1.50;1.50;;;;;32.35;24.74;102085.63;4952364;28;47010;-72
2021/08/24 10:46:27;;;;;;;;;3.50;3.00;;;;;32.16;25.17;102081.66;4945619;28;45550;-66
2021/08/24 10:48:53;;;;;;;;;2.25;2.00;;;;;31.78;25.46;102069.03;4941352;28;45541;-72
2021/08/24 10:51:44;;;;;;;;;3.00;2.50;;;;;32.10;25.83;102077.25;4944936;28;46035;-71
2021/08/24 10:54:18;;;;;;;;;2.00;2.00;;;;;32.77;25.08;102062.06;4945436;28;47193;-71
2021/08/24 10:56:50;;;;;;;;;3.00;2.00;;;;;33.16;22.56;102086.31;4938499;28;45872;-72
2021/08/24 10:59:55;;;;;;;;;3.25;1.75;;;;;33.29;23.81;102072.13;4933284;28;45605;-70
2021/08/24 11:02:45;;;;;;;;;1.00;1.00;;;;;33.61;23.34;102082.06;4859205;29;45606;-70
2021/08/24 11:05:22;;;;;;;;;2.25;2.00;;;;;33.41;24.02;102069.13;4858191;29;46251;-69
2021/08/24 11:08:06;;;;;;;;;4.00;4.00;;;;;33.57;23.05;102079.03;4849804;29;45579;-70
2021/08/24 11:10:59;;;;;;;;;3.25;3.00;;;;;33.23;23.93;102073.19;4848249;29;45582;-66
2021/08/24 11:13:24;;;;;;;;;4.25;4.00;;;;;32.49;24.44;102069.59;4854988;29;45714;-72
2021/08/24 11:16:07;;;;;;;;;3.75;2.00;;;;;32.23;24.21;102065.84;4855276;29;45540;-71
2021/08/24 11:18:43;;;;;;;;;4.25;3.00;;;;;32.48;24.70;102059.69;4859799;29;45596;-72
2021/08/24 11:21:21;;;;;;;;;3.00;3.00;;;;;33.16;25.20;102059.78;4845554;29;45855;-70
2021/08/24 11:24:15;;;;;;;;;3.00;2.25;;;;;33.87;24.50;102052.75;4853482;29;45549;-72
2021/08/24 11:26:58;;;;;;;;;3.00;3.00;;;;;34.64;24.24;102049.88;4851239;29;45804;-70
2021/08/24 11:29:28;;;;;;;;;3.50;3.00;;;;;34.77;23.37;102049.28;4838884;29;45609;-72